Time;durP1;ratioP1;P1;durP2;ratioP2;P2;SDS_P1;SDS_P2;PMS_P1;PMS_P2;Temp;Humidity;BMP_temperature;BMP_pressure;BME280_temperature;BME280_humidity;BME280_pressure;Samples;Min_cycle;Max_cycle;Signal;HPM_P1;HPM_P2
2023/11/01 00:00:19;;;;;;;13.98;5.40;;;;;;;-146.25;100.00;52518.25;2072882;28;20050;-66
2023/11/01 00:01:23;;;;;;;12.10;5.60;;;;;;;-146.25;100.00;52522.28;2072579;28;20086;-67
2023/11/01 00:02:25;;;;;;;8.73;5.70;;;;;;;-146.25;100.00;52548.66;2072164;28;31014;-67
2023/11/01 00:03:27;;;;;;;9.60;6.03;;;;;;;-146.25;100.00;52528.38;2071907;28;37315;-67
2023/11/01 00:04:29;;;;;;;9.77;5.75;;;;;;;-146.25;100.00;52534.47;2071746;28;32982;-67
2023/11/01 00:05:31;;;;;;;15.23;7.03;;;;;;;-146.25;100.00;52568.94;2071135;28;34148;-68
2023/11/01 00:06:33;;;;;;;13.90;6.40;;;;;;;-146.25;100.00;52548.66;2064070;28;27633;-67
2023/11/01 00:07:35;;;;;;;15.10;6.47;;;;;;;-146.25;100.00;52554.75;2072206;28;21412;-67
2023/11/01 00:08:37;;;;;;;17.85;8.05;;;;;;;-146.25;100.00;52526.34;2072146;28;36157;-67
2023/11/01 00:09:39;;;;;;;13.00;7.32;;;;;;;-146.25;100.00;52516.22;2072890;28;30194;-66
2023/11/01 00:10:40;;;;;;;20.58;7.88;;;;;;;-146.25;100.00;52510.13;2079827;28;31327;-67
2023/11/01 00:11:42;;;;;;;16.98;7.55;;;;;;;-146.25;100.00;52487.81;2079439;28;37011;-67
2023/11/01 00:12:44;;;;;;;14.32;8.00;;;;;;;-146.25;100.00;52528.38;2072338;28;34100;-67
2023/11/01 00:13:46;;;;;;;17.33;8.80;;;;;;;-146.25;100.00;52556.75;2072402;28;24446;-67
2023/11/01 00:14:48;;;;;;;22.45;9.52;;;;;;;-146.25;100.00;52544.59;2071991;28;35270;-68
2023/11/01 00:15:49;;;;;;;21.85;9.68;;;;;;;-146.25;100.00;52558.78;2079846;28;35779;-67
2023/11/01 00:16:51;;;;;;;23.55;9.20;;;;;;;-146.25;100.00;52534.47;2079367;28;33355;-67
2023/11/01 00:17:53;;;;;;;21.10;9.85;;;;;;;-146.25;100.00;52518.25;2072250;28;35170;-66
2023/11/01 00:18:55;;;;;;;16.77;8.55;;;;;;;-146.25;100.00;52542.56;2072051;28;30484;-67
2023/11/01 00:19:57;;;;;;;17.30;9.77;;;;;;;-146.25;100.00;52528.38;2072076;28;34028;-66
2023/11/01 00:20:59;;;;;;;22.67;9.57;;;;;;;-146.25;100.00;52514.19;2072653;28;32638;-67
2023/11/01 00:22:01;;;;;;;24.73;11.07;;;;;;;-146.25;100.00;52504.03;2072128;28;33633;-67
2023/11/01 00:23:02;;;;;;;20.08;9.82;;;;;;;-146.25;100.00;52497.97;2071889;28;33907;-67
2023/11/01 00:24:07;;;;;;;27.02;11.57;;;;;;;-146.25;100.00;52510.13;2072232;28;30015;-67
2023/11/01 00:25:08;;;;;;;26.63;11.55;;;;;;;-146.25;100.00;52540.53;2072133;28;33252;-67
2023/11/01 00:26:10;;;;;;;28.58;12.77;;;;;;;-146.25;100.00;52506.06;2071101;28;35322;-67
2023/11/01 00:27:12;;;;;;;30.58;12.82;;;;;;;-146.25;100.00;52526.34;2071755;28;20042;-67
2023/11/01 00:28:14;;;;;;;26.63;11.98;;;;;;;-146.25;100.00;52510.13;2080018;28;25098;-67
2023/11/01 00:29:16;;;;;;;27.60;12.05;;;;;;;-146.25;100.00;52495.94;2072370;28;27060;-67
2023/11/01 00:30:18;;;;;;;31.75;13.43;;;;;;;-146.25;100.00;52548.66;2072078;28;20168;-67
2023/11/01 00:31:20;;;;;;;35.92;13.95;;;;;;;-146.25;100.00;52540.53;2071228;28;33966;-67
2023/11/01 00:32:22;;;;;;;33.03;14.20;;;;;;;-146.25;100.00;52508.09;2071338;28;24685;-67
2023/11/01 00:33:23;;;;;;;30.63;14.27;;;;;;;-146.25;100.00;52534.47;2071442;28;29068;-66
2023/11/01 00:34:25;;;;;;;37.67;15.00;;;;;;;-146.25;100.00;52495.94;2072160;28;29306;-67
2023/11/01 00:35:27;;;;;;;33.67;14.05;;;;;;;-146.25;100.00;52512.16;2072559;28;24247;-67
2023/11/01 00:36:29;;;;;;;29.17;13.85;;;;;;;-146.25;100.00;52568.94;2080465;28;20781;-68
2023/11/01 00:37:31;;;;;;;30.05;14.07;;;;;;;-146.25;100.00;52534.47;2079882;28;26086;-67
2023/11/01 00:38:35;;;;;;;27.67;13.10;;;;;;;-146.25;100.00;52522.28;2072356;28;20038;-67
2023/11/01 00:39:37;;;;;;;33.00;14.10;;;;;;;-146.25;100.00;52495.94;2071673;28;27695;-67
2023/11/01 00:40:39;;;;;;;27.67;14.13;;;;;;;-146.25;100.00;52534.47;2072284;28;29121;-67
2023/11/01 00:41:43;;;;;;;27.98;13.35;;;;;;;-146.25;100.00;52510.13;2072094;28;27680;-67
2023/11/01 00:42:45;;;;;;;29.55;14.23;;;;;;;-146.25;100.00;52542.56;2072090;28;25387;-68
2023/11/01 00:43:49;;;;;;;29.45;14.15;;;;;;;-146.25;100.00;52491.88;2080495;28;20038;-66
2023/11/01 00:44:51;;;;;;;24.40;13.23;;;;;;;-146.25;100.00;52564.88;2079192;28;29029;-66
2023/11/01 00:45:53;;;;;;;26.73;14.00;;;;;;;-146.25;100.00;52518.25;2071534;28;27413;-66
2023/11/01 00:46:55;;;;;;;32.65;14.60;;;;;;;-146.25;100.00;52526.34;2072129;28;20047;-67
2023/11/01 00:47:57;;;;;;;24.52;13.63;;;;;;;-146.25;100.00;52534.47;2070824;28;32790;-66
2023/11/01 00:49:01;;;;;;;24.27;13.88;;;;;;;-146.25;100.00;52546.63;2071454;28;26646;-65
2023/11/01 00:50:05;;;;;;;24.75;13.88;;;;;;;-146.25;100.00;52530.41;2079690;28;25991;-65
2023/11/01 00:51:07;;;;;;;23.65;13.60;;;;;;;-146.25;100.00;52512.16;2077942;28;32089;-65
2023/11/01 00:52:09;;;;;;;21.75;11.85;;;;;;;-146.25;100.00;52510.13;2072851;28;20038;-65
2023/11/01 00:53:11;;;;;;;26.38;14.20;;;;;;;-146.25;100.00;52536.50;2072339;28;20042;-65
2023/11/01 00:54:13;;;;;;;22.92;13.68;;;;;;;-146.25;100.00;52550.69;2071327;28;27739;-65
2023/11/01 00:55:16;;;;;;;24.55;13.63;;;;;;;-146.25;100.00;52536.50;2071396;28;27354;-65
2023/11/01 00:56:18;;;;;;;24.92;13.63;;;;;;;-146.25;100.00;52512.16;2079535;28;31144;-66
2023/11/01 00:57:20;;;;;;;26.30;13.63;;;;;;;-146.25;100.00;52514.19;2070766;28;28445;-65
2023/11/01 00:58:22;;;;;;;26.00;13.70;;;;;;;-146.25;100.00;52534.47;2063186;28;24209;-66
2023/11/01 00:59:24;;;;;;;25.00;14.00;;;;;;;-146.25;100.00;52552.72;2079669;28;25614;-66
2023/11/01 01:00:27;;;;;;;28.30;14.57;;;;;;;-146.25;100.00;52493.91;2072593;28;20097;-65
2023/11/01 01:01:29;;;;;;;27.98;14.18;;;;;;;-146.25;100.00;52546.63;2071655;28;20981;-65
2023/11/01 01:02:31;;;;;;;28.27;14.60;;;;;;;-146.25;100.00;52518.25;2071647;28;26708;-65
2023/11/01 01:03:32;;;;;;;25.52;13.73;;;;;;;-146.25;100.00;52534.47;2071286;28;32495;-65
2023/11/01 01:04:34;;;;;;;24.55;12.00;;;;;;;-146.25;100.00;52518.25;2072678;28;20791;-66
2023/11/01 01:05:36;;;;;;;27.67;14.63;;;;;;;-146.25;100.00;52502.03;2072393;28;30342;-66
2023/11/01 01:06:38;;;;;;;21.80;13.52;;;;;;;-146.25;100.00;52516.22;2071974;28;31497;-67
2023/11/01 01:07:40;;;;;;;27.48;14.23;;;;;;;-146.25;100.00;52546.63;2072095;28;25731;-65
2023/11/01 01:08:41;;;;;;;27.00;13.63;;;;;;;-146.25;100.00;52493.91;2072054;28;22714;-66
2023/11/01 01:09:43;;;;;;;25.77;14.45;;;;;;;-146.25;100.00;52554.75;2071321;28;20098;-65
2023/11/01 01:10:45;;;;;;;32.47;14.48;;;;;;;-146.25;100.00;52526.34;2071855;28;20186;-66
2023/11/01 01:11:47;;;;;;;25.83;15.23;;;;;;;-146.25;100.00;52514.19;2079214;28;29863;-66
2023/11/01 01:12:51;;;;;;;24.35;13.13;;;;;;;-146.25;100.00;52493.91;2071838;28;20053;-66
2023/11/01 01:13:52;;;;;;;24.35;14.18;;;;;;;-146.25;100.00;52522.28;2071587;28;24812;-65
2023/11/01 01:14:56;;;;;;;28.10;15.10;;;;;;;-146.25;100.00;52518.25;2072041;28;23609;-66
2023/11/01 01:15:58;;;;;;;23.58;13.75;;;;;;;-146.25;100.00;52518.25;2072126;28;20883;-66
2023/11/01 01:17:00;;;;;;;29.60;14.68;;;;;;;-146.25;100.00;52550.69;2071728;28;33530;-64
2023/11/01 01:18:01;;;;;;;28.25;14.70;;;;;;;-146.25;100.00;52495.94;2079570;28;20899;-65
2023/11/01 01:19:04;;;;;;;24.35;13.68;;;;;;;-146.25;100.00;52532.44;2079305;28;20256;-66
2023/11/01 01:20:06;;;;;;;27.42;16.63;;;;;;;-146.25;100.00;52514.19;2071635;28;34936;-67
2023/11/01 01:21:08;;;;;;;26.98;15.18;;;;;;;-146.25;100.00;52518.25;2072140;28;25828;-66
2023/11/01 01:22:10;;;;;;;26.95;14.90;;;;;;;-146.25;100.00;52504.03;2071320;28;20057;-65
2023/11/01 01:23:13;;;;;;;28.42;14.75;;;;;;;-146.25;100.00;52508.09;2071746;28;20096;-66
2023/11/01 01:24:15;;;;;;;25.10;14.70;;;;;;;-146.25;100.00;52540.53;2070783;28;33404;-66
2023/11/01 01:25:17;;;;;;;25.85;14.70;;;;;;;-146.25;100.00;52516.22;2062840;28;28974;-66
2023/11/01 01:26:19;;;;;;;28.35;16.33;;;;;;;-146.25;100.00;52526.34;2063284;28;30607;-64
2023/11/01 01:27:21;;;;;;;30.52;16.58;;;;;;;-146.25;100.00;52570.97;2071941;28;21131;-66
2023/11/01 01:28:22;;;;;;;29.80;16.05;;;;;;;-146.25;100.00;52520.28;2071947;28;20038;-65
2023/11/01 01:29:24;;;;;;;27.70;16.00;;;;;;;-146.25;100.00;52512.16;2071631;28;29822;-65
2023/11/01 01:30:26;;;;;;;26.95;15.82;;;;;;;-146.25;100.00;52530.41;2071201;28;25256;-65
2023/11/01 01:31:28;;;;;;;29.35;17.02;;;;;;;-146.25;100.00;52554.75;2062650;28;29619;-66
2023/11/01 01:32:33;;;;;;;31.42;17.48;;;;;;;-146.25;100.00;52506.06;2063187;28;29064;-66
2023/11/01 01:33:34;;;;;;;30.15;17.60;;;;;;;-146.25;100.00;52524.31;2059092;28;31444;-64
2023/11/01 01:34:38;;;;;;;30.52;16.38;;;;;;;-146.25;100.00;52516.22;2056992;28;20043;-66
2023/11/01 01:35:40;;;;;;;30.48;16.98;;;;;;;-146.25;100.00;52548.66;2079324;28;29209;-65
2023/11/01 01:36:42;;;;;;;31.42;18.25;;;;;;;-146.25;100.00;52526.34;2071059;28;26118;-66
2023/11/01 01:37:44;;;;;;;28.10;16.17;;;;;;;-146.25;100.00;52546.63;2071559;28;20759;-65
2023/11/01 01:38:45;;;;;;;33.53;17.27;;;;;;;-146.25;100.00;52540.53;2071775;28;28540;-66
2023/11/01 01:39:47;;;;;;;33.80;18.17;;;;;;;-146.25;100.00;52506.06;2072189;28;20163;-66
2023/11/01 01:40:49;;;;;;;36.58;18.65;;;;;;;-146.25;100.00;52550.69;2079375;28;21850;-65
2023/11/01 01:41:51;;;;;;;33.55;18.60;;;;;;;-146.25;100.00;52502.03;2071442;28;20081;-66
2023/11/01 01:42:53;;;;;;;32.38;17.75;;;;;;;-146.25;100.00;52534.47;2070832;28;31021;-65
2023/11/01 01:43:54;;;;;;;36.53;18.90;;;;;;;-146.25;100.00;52554.75;2071146;28;28150;-67
2023/11/01 01:44:56;;;;;;;36.60;19.02;;;;;;;-146.25;100.00;52493.91;2071507;28;20926;-67
2023/11/01 01:46:10;;;;;;;34.30;19.10;;;;;;;-146.25;100.00;52570.97;2071931;28;23616;-68
2023/11/01 01:47:12;;;;;;;39.50;19.55;;;;;;;-146.25;100.00;52518.25;2070738;28;33069;-65
2023/11/01 01:48:14;;;;;;;36.40;19.35;;;;;;;-146.25;100.00;52546.63;2071608;28;20038;-65
2023/11/01 01:49:16;;;;;;;36.42;19.40;;;;;;;-146.25;100.00;52520.28;2070828;28;29822;-66
2023/11/01 01:50:17;;;;;;;37.65;19.58;;;;;;;-146.25;100.00;52500.00;2063309;28;30972;-66
2023/11/01 01:51:22;;;;;;;37.60;20.50;;;;;;;-146.25;100.00;52538.53;2063222;28;20094;-67
2023/11/01 01:52:24;;;;;;;37.40;20.73;;;;;;;-146.25;100.00;52534.47;2063033;28;29576;-66
2023/11/01 01:53:26;;;;;;;38.67;18.85;;;;;;;-146.25;100.00;52512.16;2071616;28;20116;-67
2023/11/01 01:54:29;;;;;;;37.00;20.13;;;;;;;-146.25;100.00;52542.56;2070697;28;35450;-64
2023/11/01 01:55:31;;;;;;;39.05;20.40;;;;;;;-146.25;100.00;52534.47;2063072;28;35529;-66
2023/11/01 01:56:34;;;;;;;36.13;20.30;;;;;;;-146.25;100.00;52526.34;2063458;28;20137;-66
2023/11/01 01:57:36;;;;;;;41.22;21.48;;;;;;;-146.25;100.00;52504.03;2062840;28;26457;-66
2023/11/01 01:58:44;;;;;;;44.22;19.95;;;;;;;-146.25;100.00;52558.78;2047729;28;20859;-66
2023/11/01 01:59:46;;;;;;;46.42;22.30;;;;;;;-146.25;100.00;52522.28;2056811;28;20169;-66
2023/11/01 02:00:50;;;;;;;38.45;19.98;;;;;;;-146.25;100.00;52546.63;2054920;28;20043;-66
2023/11/01 02:01:55;;;;;;;48.53;21.52;;;;;;;-146.25;100.00;52495.94;2055646;28;22092;-67
2023/11/01 02:03:00;;;;;;;38.10;20.67;;;;;;;-146.25;100.00;52491.88;2063967;28;20035;-66
2023/11/01 02:04:02;;;;;;;44.55;21.88;;;;;;;-146.25;100.00;52546.63;2071115;28;20854;-66
2023/11/01 02:05:06;;;;;;;42.45;21.67;;;;;;;-146.25;100.00;52540.53;2079034;28;31671;-66
2023/11/01 02:06:08;;;;;;;43.20;21.58;;;;;;;-146.25;100.00;52528.38;2071291;28;20041;-65
2023/11/01 02:07:10;;;;;;;41.58;21.92;;;;;;;-146.25;100.00;52530.41;2071564;28;28750;-66
2023/11/01 02:08:11;;;;;;;40.08;21.27;;;;;;;-146.25;100.00;52522.28;2070611;28;28648;-66
2023/11/01 02:09:16;;;;;;;40.47;21.75;;;;;;;-146.25;100.00;52546.63;2054349;28;28951;-65
2023/11/01 02:10:18;;;;;;;44.38;22.77;;;;;;;-146.25;100.00;52497.97;2072480;28;20328;-66
2023/11/01 02:11:20;;;;;;;43.05;22.83;;;;;;;-146.25;100.00;52556.75;2079072;28;26950;-66
2023/11/01 02:12:25;;;;;;;43.92;22.35;;;;;;;-146.25;100.00;52510.13;2071143;28;20042;-66
2023/11/01 02:13:26;;;;;;;46.53;22.67;;;;;;;-146.25;100.00;52516.22;2063340;28;20073;-66
2023/11/01 02:14:28;;;;;;;45.97;22.52;;;;;;;-146.25;100.00;52506.06;2071315;28;20213;-66
2023/11/01 02:15:30;;;;;;;49.00;24.38;;;;;;;-146.25;100.00;52524.31;2079346;28;20156;-66
2023/11/01 02:16:32;;;;;;;40.75;23.17;;;;;;;-146.25;100.00;52504.03;2079049;28;30161;-65
2023/11/01 02:17:34;;;;;;;47.25;23.90;;;;;;;-146.25;100.00;52522.28;2079449;28;20110;-66
2023/11/01 02:18:36;;;;;;;56.45;24.23;;;;;;;-146.25;100.00;52530.41;2079692;28;20038;-66
2023/11/01 02:19:37;;;;;;;49.78;24.73;;;;;;;-146.25;100.00;52530.41;2078681;28;23692;-66
2023/11/01 02:20:44;;;;;;;45.35;23.27;;;;;;;-146.25;100.00;52512.16;2071335;28;20795;-66
2023/11/01 02:21:46;;;;;;;47.30;23.15;;;;;;;-146.25;100.00;52534.47;2063800;28;20047;-66
2023/11/01 02:22:48;;;;;;;51.67;24.48;;;;;;;-146.25;100.00;52522.28;2070797;28;20160;-65
2023/11/01 02:23:51;;;;;;;47.38;24.38;;;;;;;-146.25;100.00;52530.41;2079345;28;20050;-66
2023/11/01 02:24:53;;;;;;;46.50;24.60;;;;;;;-146.25;100.00;52552.72;2079281;28;20152;-66
2023/11/01 02:25:55;;;;;;;48.80;23.02;;;;;;;-146.25;100.00;52550.69;2072593;28;28039;-66
2023/11/01 02:26:57;;;;;;;45.92;22.33;;;;;;;-146.25;100.00;52550.69;2064473;28;32455;-66
2023/11/01 02:28:05;;;;;;;49.65;22.90;;;;;;;-146.25;100.00;52538.53;2072488;28;29590;-65
2023/11/01 02:29:08;;;;;;;51.53;24.45;;;;;;;-146.25;100.00;52504.03;2072513;28;20046;-65
2023/11/01 02:30:16;;;;;;;51.75;23.77;;;;;;;-146.25;100.00;52512.16;2072688;28;21406;-66
2023/11/01 02:31:18;;;;;;;52.25;24.05;;;;;;;-146.25;100.00;52518.25;2073095;28;23133;-66
2023/11/01 02:32:21;;;;;;;54.20;25.30;;;;;;;-146.25;100.00;52524.31;2072325;28;25546;-66
2023/11/01 02:33:23;;;;;;;57.85;26.00;;;;;;;-146.25;100.00;52514.19;2072121;28;29915;-66
2023/11/01 02:34:24;;;;;;;54.47;25.23;;;;;;;-146.25;100.00;52524.31;2073719;28;20049;-66
2023/11/01 02:35:26;;;;;;;48.65;24.67;;;;;;;-146.25;100.00;52550.69;2072386;28;38220;-65
2023/11/01 02:36:28;;;;;;;51.60;24.30;;;;;;;-146.25;100.00;52548.66;2080062;28;28882;-65
2023/11/01 02:37:30;;;;;;;55.33;25.60;;;;;;;-146.25;100.00;52566.91;2072339;28;20047;-66
2023/11/01 02:38:34;;;;;;;48.22;23.98;;;;;;;-146.25;100.00;52524.31;2072444;28;28545;-66
2023/11/01 02:39:36;;;;;;;49.80;24.80;;;;;;;-146.25;100.00;52518.25;2071938;28;31722;-65
2023/11/01 02:40:38;;;;;;;57.08;27.42;;;;;;;-146.25;100.00;52485.81;2072716;28;20038;-66
2023/11/01 02:41:40;;;;;;;53.05;25.73;;;;;;;-146.25;100.00;52534.47;2073028;28;25354;-65
2023/11/01 02:42:45;;;;;;;50.63;25.98;;;;;;;-146.25;100.00;52552.72;2072695;28;30762;-66
2023/11/01 02:43:47;;;;;;;55.95;25.58;;;;;;;-146.25;100.00;52532.44;2072527;28;20047;-66
2023/11/01 02:44:49;;;;;;;52.47;26.75;;;;;;;-146.25;100.00;52522.28;2072493;28;23844;-65
2023/11/01 02:45:53;;;;;;;52.17;26.15;;;;;;;-146.25;100.00;52530.41;2072119;28;29358;-66
2023/11/01 02:46:56;;;;;;;50.08;25.88;;;;;;;-146.25;100.00;52530.41;2072741;28;20058;-64
2023/11/01 02:47:58;;;;;;;62.78;27.70;;;;;;;-146.25;100.00;52534.47;2064024;28;30594;-66
2023/11/01 02:49:00;;;;;;;52.63;26.40;;;;;;;-146.25;100.00;52528.38;2072111;28;20042;-66
2023/11/01 02:50:03;;;;;;;57.55;26.90;;;;;;;-146.25;100.00;52522.28;2072838;28;24973;-66
2023/11/01 02:51:05;;;;;;;55.33;27.60;;;;;;;-146.25;100.00;52536.50;2071618;28;32301;-66
2023/11/01 02:52:07;;;;;;;53.70;27.55;;;;;;;-146.25;100.00;52542.56;2064233;28;26973;-65
2023/11/01 02:53:09;;;;;;;56.40;26.10;;;;;;;-146.25;100.00;52546.63;2072490;28;25968;-66
2023/11/01 02:54:10;;;;;;;58.90;27.15;;;;;;;-146.25;100.00;52530.41;2072699;28;31013;-66
2023/11/01 02:55:14;;;;;;;61.20;27.33;;;;;;;-146.25;100.00;52542.56;2072890;28;27695;-66
2023/11/01 02:56:21;;;;;;;60.88;28.30;;;;;;;-146.25;100.00;52504.03;2080084;28;31903;-66
2023/11/01 02:57:26;;;;;;;62.05;27.75;;;;;;;-146.25;100.00;52532.44;2080424;28;20042;-66
2023/11/01 02:58:29;;;;;;;58.90;27.27;;;;;;;-146.25;100.00;52530.41;2072124;28;20061;-66
2023/11/01 02:59:31;;;;;;;64.03;28.35;;;;;;;-146.25;100.00;52546.63;2072401;28;32813;-66
2023/11/01 03:00:33;;;;;;;61.40;28.20;;;;;;;-146.25;100.00;52514.19;2071323;28;29911;-65
2023/11/01 03:01:36;;;;;;;59.38;28.02;;;;;;;-146.25;100.00;52502.03;2063781;28;35651;-65
2023/11/01 03:02:39;;;;;;;58.60;27.95;;;;;;;-146.25;100.00;52566.91;2072540;28;20161;-66
2023/11/01 03:03:40;;;;;;;56.33;28.85;;;;;;;-146.25;100.00;52536.50;2072039;28;37234;-65
2023/11/01 03:04:42;;;;;;;58.97;28.23;;;;;;;-146.25;100.00;52534.47;2071771;28;32451;-66
2023/11/01 03:05:44;;;;;;;64.47;30.08;;;;;;;-146.25;100.00;52540.53;2073432;28;20098;-65
2023/11/01 03:06:46;;;;;;;65.15;30.48;;;;;;;-146.25;100.00;52532.44;2072536;28;34296;-67
2023/11/01 03:07:48;;;;;;;61.05;29.30;;;;;;;-146.25;100.00;52534.47;2080358;28;26203;-66
2023/11/01 03:08:50;;;;;;;60.05;28.52;;;;;;;-146.25;100.00;52489.84;2080428;28;20050;-65
2023/11/01 03:09:52;;;;;;;60.75;29.33;;;;;;;-146.25;100.00;52524.31;2080588;28;20941;-65
2023/11/01 03:10:54;;;;;;;67.15;30.42;;;;;;;-146.25;100.00;52530.41;2080243;28;24228;-65
2023/11/01 03:11:56;;;;;;;65.88;30.13;;;;;;;-146.25;100.00;52542.56;2073306;28;20081;-65
2023/11/01 03:12:58;;;;;;;65.03;29.23;;;;;;;-146.25;100.00;52504.03;2071732;28;36835;-65
2023/11/01 03:14:02;;;;;;;58.50;28.25;;;;;;;-146.25;100.00;52522.28;2072702;28;20216;-67
2023/11/01 03:15:07;;;;;;;67.03;30.05;;;;;;;-146.25;100.00;52556.75;2072725;28;20047;-66
2023/11/01 03:16:09;;;;;;;59.63;28.65;;;;;;;-146.25;100.00;52510.13;2073396;28;20189;-67
2023/11/01 03:17:12;;;;;;;66.80;29.60;;;;;;;-146.25;100.00;52514.19;2063434;28;22255;-65
2023/11/01 03:18:14;;;;;;;57.50;28.75;;;;;;;-146.25;100.00;52514.19;2064159;28;30529;-66
2023/11/01 03:19:15;;;;;;;67.63;30.70;;;;;;;-146.25;100.00;52528.38;2072526;28;27301;-65
2023/11/01 03:20:17;;;;;;;63.63;30.63;;;;;;;-146.25;100.00;52532.44;2080204;28;29932;-65
2023/11/01 03:21:21;;;;;;;67.47;30.17;;;;;;;-146.25;100.00;52534.47;2080088;28;30045;-64
2023/11/01 03:22:23;;;;;;;63.67;28.67;;;;;;;-146.25;100.00;52538.53;2073066;28;20046;-65
2023/11/01 03:23:25;;;;;;;61.28;30.13;;;;;;;-146.25;100.00;52510.13;2080753;28;20050;-65
2023/11/01 03:24:26;;;;;;;71.03;31.50;;;;;;;-146.25;100.00;52556.75;2079888;28;25812;-65
2023/11/01 03:25:28;;;;;;;65.55;31.17;;;;;;;-146.25;100.00;52538.53;2072899;28;20043;-65
2023/11/01 03:26:30;;;;;;;65.47;30.65;;;;;;;-146.25;100.00;52544.59;2072891;28;27628;-64
2023/11/01 03:27:32;;;;;;;63.13;31.13;;;;;;;-146.25;100.00;52489.84;2071487;28;30579;-65
2023/11/01 03:28:34;;;;;;;64.47;30.30;;;;;;;-146.25;100.00;52548.66;2072506;28;20796;-65
2023/11/01 03:29:35;;;;;;;65.00;30.55;;;;;;;-146.25;100.00;52554.75;2072444;28;29493;-65
2023/11/01 03:30:37;;;;;;;63.25;30.05;;;;;;;-146.25;100.00;52566.91;2071781;28;33206;-65
2023/11/01 03:31:39;;;;;;;66.80;30.45;;;;;;;-146.25;100.00;52530.41;2072672;28;20112;-66
2023/11/01 03:32:40;;;;;;;69.05;31.63;;;;;;;-146.25;100.00;52526.34;2072551;28;31550;-65
2023/11/01 03:33:45;;;;;;;62.55;29.98;;;;;;;-146.25;100.00;52564.88;2072601;28;32074;-66
2023/11/01 03:34:49;;;;;;;61.58;29.95;;;;;;;-146.25;100.00;52546.63;2072043;28;28944;-65
2023/11/01 03:35:51;;;;;;;61.20;31.00;;;;;;;-146.25;100.00;52570.97;2072342;28;20043;-65
2023/11/01 03:36:53;;;;;;;67.03;31.10;;;;;;;-146.25;100.00;52516.22;2072641;28;29969;-65
2023/11/01 03:37:55;;;;;;;59.97;30.58;;;;;;;-146.25;100.00;52536.50;2072474;28;31184;-66
2023/11/01 03:38:58;;;;;;;61.65;30.55;;;;;;;-146.25;100.00;52506.06;2073126;28;20038;-65
2023/11/01 03:40:00;;;;;;;64.75;31.73;;;;;;;-146.25;100.00;52526.34;2072459;28;29604;-65
2023/11/01 03:41:03;;;;;;;71.43;32.83;;;;;;;-146.25;100.00;52534.47;2073362;28;20116;-65
2023/11/01 03:42:05;;;;;;;69.28;32.17;;;;;;;-146.25;100.00;52534.47;2080268;28;21280;-65
2023/11/01 03:43:07;;;;;;;70.30;33.72;;;;;;;-146.25;100.00;52548.66;2071197;28;33231;-65
2023/11/01 03:44:09;;;;;;;61.00;31.08;;;;;;;-146.25;100.00;52518.25;2064534;28;20035;-66
2023/11/01 03:45:11;;;;;;;74.00;32.33;;;;;;;-146.25;100.00;52526.34;2071694;28;36729;-67
2023/11/01 03:46:13;;;;;;;63.33;31.55;;;;;;;-146.25;100.00;52560.81;2071466;28;28058;-66
2023/11/01 03:47:15;;;;;;;72.50;32.13;;;;;;;-146.25;100.00;52550.69;2071967;28;32083;-65
2023/11/01 03:48:19;;;;;;;63.25;31.10;;;;;;;-146.25;100.00;52526.34;2073032;28;20623;-65
2023/11/01 03:49:25;;;;;;;72.25;34.25;;;;;;;-146.25;100.00;52538.53;2072616;28;20899;-64
2023/11/01 03:50:27;;;;;;;70.22;32.90;;;;;;;-146.25;100.00;52522.28;2079929;28;31439;-65
2023/11/01 03:51:29;;;;;;;70.57;32.97;;;;;;;-146.25;100.00;52532.44;2079459;28;30518;-65
2023/11/01 03:52:31;;;;;;;68.50;32.60;;;;;;;-146.25;100.00;52552.72;2079888;28;34183;-67
2023/11/01 03:53:32;;;;;;;66.93;32.08;;;;;;;-146.25;100.00;52530.41;2079783;28;37109;-65
2023/11/01 03:54:34;;;;;;;64.97;32.03;;;;;;;-146.25;100.00;52542.56;2071639;28;36909;-65
2023/11/01 03:55:36;;;;;;;65.30;31.73;;;;;;;-146.25;100.00;52526.34;2072244;28;34711;-65
2023/11/01 03:56:43;;;;;;;63.80;32.38;;;;;;;-146.25;100.00;52528.38;2072000;28;35532;-65
2023/11/01 03:57:45;;;;;;;63.50;32.17;;;;;;;-146.25;100.00;52510.13;2073101;28;20042;-67
2023/11/01 03:58:49;;;;;;;69.00;33.60;;;;;;;-146.25;100.00;52556.75;2072172;28;36130;-65
2023/11/01 03:59:54;;;;;;;66.45;33.35;;;;;;;-146.25;100.00;52518.25;2071982;28;33391;-65
2023/11/01 04:00:56;;;;;;;62.72;30.73;;;;;;;-146.25;100.00;52534.47;2071950;28;35128;-67
2023/11/01 04:01:58;;;;;;;66.85;31.70;;;;;;;-146.25;100.00;52528.38;2071116;28;37826;-66
2023/11/01 04:03:00;;;;;;;66.25;32.88;;;;;;;-146.25;100.00;52508.09;2071370;28;35060;-65
2023/11/01 04:04:02;;;;;;;66.10;32.47;;;;;;;-146.25;100.00;52530.41;2072067;28;32785;-64
2023/11/01 04:05:04;;;;;;;73.75;33.25;;;;;;;-146.25;100.00;52534.47;2072001;28;30494;-66
2023/11/01 04:06:06;;;;;;;62.53;32.03;;;;;;;-146.25;100.00;52522.28;2072127;28;35733;-65
2023/11/01 04:07:08;;;;;;;59.58;30.38;;;;;;;-146.25;100.00;52554.75;2071423;28;34277;-65
2023/11/01 04:08:10;;;;;;;63.97;31.73;;;;;;;-146.25;100.00;52520.28;2071691;28;30617;-65
2023/11/01 04:09:20;;;;;;;58.53;29.58;;;;;;;-146.25;100.00;52491.88;2079523;28;20812;-65
2023/11/01 04:10:21;;;;;;;58.60;30.52;;;;;;;-146.25;100.00;52534.47;2072449;28;35609;-65
2023/11/01 04:11:23;;;;;;;60.85;31.00;;;;;;;-146.25;100.00;52534.47;2072419;28;20153;-65
2023/11/01 04:12:26;;;;;;;60.63;31.67;;;;;;;-146.25;100.00;52504.03;2073125;28;20039;-65
2023/11/01 04:13:28;;;;;;;58.72;29.85;;;;;;;-146.25;100.00;52562.84;2071833;28;34469;-65
2023/11/01 04:14:29;;;;;;;61.08;31.05;;;;;;;-146.25;100.00;52562.84;2072141;28;33713;-67
2023/11/01 04:15:32;;;;;;;65.47;32.65;;;;;;;-146.25;100.00;52542.56;2071079;28;34441;-67
2023/11/01 04:16:33;;;;;;;60.13;30.98;;;;;;;-146.25;100.00;52514.19;2071261;28;35539;-65
2023/11/01 04:17:35;;;;;;;62.88;30.92;;;;;;;-146.25;100.00;52528.38;2071635;28;31945;-65
2023/11/01 04:18:37;;;;;;;66.85;30.95;;;;;;;-146.25;100.00;52532.44;2071260;28;37186;-67
2023/11/01 04:19:39;;;;;;;62.33;30.25;;;;;;;-146.25;100.00;52514.19;2071409;28;32309;-66
2023/11/01 04:20:41;;;;;;;61.10;31.15;;;;;;;-146.25;100.00;52534.47;2071410;28;34476;-66
2023/11/01 04:21:42;;;;;;;58.47;29.70;;;;;;;-146.25;100.00;52526.34;2071852;28;34204;-65
2023/11/01 04:22:44;;;;;;;55.47;28.45;;;;;;;-146.25;100.00;52522.28;2072165;28;33307;-65
2023/11/01 04:23:46;;;;;;;60.10;29.30;;;;;;;-146.25;100.00;52532.44;2071316;28;31920;-66
2023/11/01 04:24:47;;;;;;;53.53;29.45;;;;;;;-146.25;100.00;52556.75;2071289;28;35387;-65
2023/11/01 04:25:49;;;;;;;63.42;30.25;;;;;;;-146.25;100.00;52473.63;2073274;28;20169;-65
2023/11/01 04:26:52;;;;;;;58.45;29.95;;;;;;;-146.25;100.00;52512.16;2071325;28;39274;-65
2023/11/01 04:27:58;;;;;;;56.65;29.98;;;;;;;-146.25;100.00;52558.78;2071321;28;36902;-65
2023/11/01 04:29:00;;;;;;;57.83;28.88;;;;;;;-146.25;100.00;52558.78;2064676;28;29603;-65
2023/11/01 04:30:04;;;;;;;66.88;30.55;;;;;;;-146.25;100.00;52536.50;2070891;28;37272;-66
2023/11/01 04:31:06;;;;;;;60.90;29.00;;;;;;;-146.25;100.00;52534.47;2072708;28;20108;-65
2023/11/01 04:32:08;;;;;;;61.25;30.05;;;;;;;-146.25;100.00;52546.63;2079314;28;34868;-66
2023/11/01 04:33:12;;;;;;;62.83;31.13;;;;;;;-146.25;100.00;52536.50;2079687;28;20038;-66
2023/11/01 04:34:14;;;;;;;59.17;29.67;;;;;;;-146.25;100.00;52546.63;2071863;28;20030;-66
2023/11/01 04:35:16;;;;;;;63.42;29.60;;;;;;;-146.25;100.00;52510.13;2072004;28;38469;-66
2023/11/01 04:36:25;;;;;;;56.53;29.40;;;;;;;-146.25;100.00;52542.56;2072071;28;34258;-67
2023/11/01 04:37:27;;;;;;;58.07;30.30;;;;;;;-146.25;100.00;52526.34;2072070;28;34492;-67